createdAt,value
2019-03-24T00:01:45.913Z,6.81
2019-03-24T00:04:21.241Z,6.78
2019-03-24T00:06:53.748Z,6.65
2019-03-24T00:09:37.059Z,6.43
2019-03-24T00:12:09.801Z,6.24
2019-03-24T00:14:45.233Z,6.11
2019-03-24T00:17:17.899Z,6.02
2019-03-24T00:19:53.289Z,5.96
2019-03-24T00:22:26.105Z,5.99
2019-03-24T00:25:06.456Z,6.00
2019-03-24T00:27:38.990Z,5.95
2019-03-24T00:30:15.453Z,5.79
2019-03-24T00:32:48.150Z,5.66
2019-03-24T00:35:29.518Z,5.59
2019-03-24T00:38:02.950Z,5.49
2019-03-24T00:40:35.818Z,5.41
2019-03-24T00:43:08.483Z,5.34
2019-03-24T00:45:44.066Z,5.37
2019-03-24T00:48:16.586Z,5.46
2019-03-24T00:50:56.750Z,5.56
2019-03-24T00:53:29.210Z,5.61
2019-03-24T00:56:13.588Z,5.62
2019-03-24T00:58:46.028Z,5.58
2019-03-24T01:01:21.693Z,5.56
2019-03-24T01:03:55.413Z,5.55
2019-03-24T01:06:30.998Z,5.52
2019-03-24T01:09:04.273Z,5.46
2019-03-24T01:11:39.808Z,5.40
2019-03-24T01:14:12.526Z,5.36
2019-03-24T01:16:52.206Z,5.18
2019-03-24T01:19:24.829Z,4.96
2019-03-24T01:21:57.643Z,4.75
2019-03-24T01:24:30.231Z,4.62
2019-03-24T01:27:06.199Z,4.54
2019-03-24T01:29:38.714Z,4.45
2019-03-24T01:32:23.651Z,4.38
2019-03-24T01:34:56.310Z,4.32
2019-03-24T01:37:29.042Z,4.27
2019-03-24T01:40:01.661Z,4.26
2019-03-24T01:42:52.155Z,4.25
2019-03-24T01:45:24.690Z,4.18
2019-03-24T01:47:57.163Z,4.13
2019-03-24T01:50:29.701Z,4.11
2019-03-24T01:53:02.303Z,4.14
2019-03-24T01:55:34.841Z,4.14
2019-03-24T01:58:16.548Z,4.13
2019-03-24T02:00:49.396Z,4.13
2019-03-24T02:03:25.005Z,4.15
2019-03-24T02:05:57.803Z,4.17
2019-03-24T02:08:31.324Z,4.18
2019-03-24T02:11:04.154Z,4.20
2019-03-24T02:13:43.921Z,4.13
2019-03-24T02:16:16.517Z,4.05
2019-03-24T02:18:49.031Z,3.96
2019-03-24T02:21:21.795Z,3.90
2019-03-24T02:24:04.523Z,3.86
2019-03-24T02:26:37.008Z,3.82
2019-03-24T02:29:18.541Z,3.78
2019-03-24T02:31:50.929Z,3.75
2019-03-24T02:34:25.635Z,3.72
2019-03-24T02:36:58.716Z,3.72
2019-03-24T02:39:31.421Z,3.71
2019-03-24T02:42:04.524Z,3.71
2019-03-24T02:44:45.041Z,3.67
2019-03-24T02:47:17.623Z,3.62
2019-03-24T02:49:59.184Z,3.53
2019-03-24T02:52:31.423Z,3.48
2019-03-24T02:55:03.954Z,3.44
2019-03-24T02:57:36.462Z,3.40
2019-03-24T03:00:17.701Z,3.38
2019-03-24T03:02:50.573Z,3.35
2019-03-24T03:05:23.167Z,3.39
2019-03-24T03:07:55.574Z,3.35
2019-03-24T03:10:38.914Z,3.26
2019-03-24T03:13:11.886Z,3.20
2019-03-24T03:15:47.168Z,3.13
2019-03-24T03:18:19.746Z,3.06
2019-03-24T03:20:55.105Z,3.04
2019-03-24T03:23:27.677Z,3.06
2019-03-24T03:26:08.111Z,3.07
2019-03-24T03:28:41.094Z,3.08
2019-03-24T03:31:20.083Z,3.07
2019-03-24T03:33:53.417Z,3.05
2019-03-24T03:36:28.945Z,3.03
2019-03-24T03:39:01.387Z,2.98
2019-03-24T03:41:37.194Z,2.93
2019-03-24T03:44:09.626Z,2.89
2019-03-24T03:46:52.375Z,2.84
2019-03-24T03:49:19.341Z,2.81
2019-03-24T03:51:57.103Z,2.75
2019-03-24T03:54:29.535Z,2.67
2019-03-24T03:57:09.903Z,2.65
2019-03-24T03:59:42.390Z,2.62
2019-03-24T04:02:22.303Z,2.48
2019-03-24T04:04:54.845Z,2.40
2019-03-24T04:07:27.334Z,2.32
2019-03-24T04:09:59.739Z,2.32
2019-03-24T04:12:41.448Z,2.30
2019-03-24T04:15:14.137Z,2.28
2019-03-24T04:17:46.695Z,2.24
2019-03-24T04:20:19.546Z,2.23
2019-03-24T04:23:04.520Z,2.19
2019-03-24T04:25:36.955Z,2.20
2019-03-24T04:28:16.818Z,2.15
2019-03-24T04:30:49.267Z,2.12
2019-03-24T04:33:21.729Z,2.13
2019-03-24T04:35:54.254Z,2.08
2019-03-24T04:38:30.557Z,2.00
2019-03-24T04:41:03.100Z,1.89
2019-03-24T04:43:45.638Z,1.84
2019-03-24T04:46:18.070Z,1.81
2019-03-24T04:48:50.482Z,1.84
2019-03-24T04:51:22.853Z,1.94
2019-03-24T04:54:02.501Z,1.99
2019-03-24T04:56:36.078Z,2.02
2019-03-24T04:59:13.045Z,2.01
2019-03-24T05:01:45.613Z,2.01
2019-03-24T05:04:20.821Z,2.01
2019-03-24T05:06:54.063Z,2.00
2019-03-24T05:09:34.000Z,2.03
2019-03-24T05:12:06.442Z,2.09
2019-03-24T05:14:46.008Z,2.10
2019-03-24T05:17:26.712Z,2.08
2019-03-24T05:19:52.577Z,2.09
2019-03-24T05:22:24.771Z,2.03
2019-03-24T05:25:06.556Z,2.00
2019-03-24T05:27:39.076Z,2.01
2019-03-24T05:30:11.561Z,2.04
2019-03-24T05:32:43.997Z,2.08
2019-03-24T05:35:22.541Z,2.14
2019-03-24T05:37:55.276Z,2.18
2019-03-24T05:40:37.542Z,2.22
2019-03-24T05:43:10.003Z,2.90
2019-03-24T05:45:47.007Z,4.05
2019-03-24T05:48:19.640Z,4.92
2019-03-24T05:50:55.619Z,5.76
2019-03-24T05:53:28.061Z,6.57
2019-03-24T05:56:04.592Z,7.24
2019-03-24T05:58:37.019Z,7.71
2019-03-24T06:01:14.666Z,8.08
2019-03-24T06:03:47.269Z,8.45
2019-03-24T06:06:30.169Z,8.77
2019-03-24T06:09:02.631Z,9.09
2019-03-24T06:11:38.315Z,9.50
2019-03-24T06:14:11.680Z,9.77
2019-03-24T06:16:48.131Z,9.84
2019-03-24T06:19:21.249Z,10.15
2019-03-24T06:22:01.113Z,10.61
2019-03-24T06:24:33.639Z,11.07
2019-03-24T06:27:09.137Z,11.36
2019-03-24T06:29:41.501Z,11.72
2019-03-24T06:32:21.312Z,12.45
2019-03-24T06:34:53.792Z,12.69
2019-03-24T06:37:33.790Z,12.46
2019-03-24T06:40:06.550Z,12.78
2019-03-24T06:42:41.873Z,13.38
2019-03-24T06:45:14.527Z,13.82
2019-03-24T06:47:57.555Z,14.51
2019-03-24T06:50:24.729Z,14.52
2019-03-24T06:52:57.221Z,14.74
2019-03-24T06:55:29.870Z,15.01
2019-03-24T06:58:06.172Z,15.35
2019-03-24T07:00:38.690Z,15.46
2019-03-24T07:03:29.960Z,15.61
2019-03-24T07:06:02.688Z,16.06
2019-03-24T07:08:35.985Z,16.41
2019-03-24T07:11:13.481Z,16.87
2019-03-24T07:13:42.792Z,17.51
2019-03-24T07:16:15.448Z,17.59
2019-03-24T07:18:51.984Z,18.18
2019-03-24T07:21:24.750Z,18.53
2019-03-24T07:24:06.582Z,18.80
2019-03-24T07:26:39.884Z,19.44
2019-03-24T07:29:12.693Z,20.00
2019-03-24T07:31:45.484Z,19.87
2019-03-24T07:34:22.422Z,19.59
2019-03-24T07:36:55.768Z,20.42
2019-03-24T07:39:38.013Z,20.14
2019-03-24T07:42:11.019Z,20.21
2019-03-24T07:44:43.965Z,20.91
2019-03-24T07:47:17.294Z,21.77
2019-03-24T07:52:29.265Z,22.11
2019-03-24T07:55:08.819Z,22.48
2019-03-24T07:57:42.279Z,22.81
2019-03-24T08:00:38.344Z,22.84
2019-03-24T08:03:11.832Z,23.71
2019-03-24T08:05:45.100Z,23.63
2019-03-24T08:08:17.688Z,24.17
2019-03-24T08:10:50.235Z,24.27
2019-03-24T08:13:23.686Z,24.13
2019-03-24T08:15:56.679Z,24.92
2019-03-24T08:18:30.399Z,24.78
2019-03-24T08:21:03.341Z,25.76
2019-03-24T08:23:35.981Z,26.44
2019-03-24T08:26:08.684Z,27.00
2019-03-24T08:28:42.171Z,27.58
2019-03-24T08:31:15.215Z,27.52
2019-03-24T08:33:47.937Z,27.99
2019-03-24T08:36:21.397Z,27.86
2019-03-24T08:38:54.701Z,28.55
2019-03-24T08:41:28.843Z,28.31
2019-03-24T08:44:01.794Z,28.36
2019-03-24T08:46:34.851Z,28.05
2019-03-24T08:49:07.429Z,27.97
2019-03-24T08:51:40.295Z,28.80
2019-03-24T08:54:14.018Z,29.05
2019-03-24T08:56:48.074Z,28.65
2019-03-24T08:59:21.107Z,28.93
2019-03-24T09:01:53.632Z,29.25
2019-03-24T09:04:26.550Z,29.86
2019-03-24T09:07:00.286Z,29.91
2019-03-24T09:09:33.387Z,30.25
2019-03-24T09:12:07.077Z,30.14
2019-03-24T09:14:39.891Z,30.16
2019-03-24T09:17:12.807Z,29.97
2019-03-24T09:19:48.966Z,29.66
2019-03-24T09:22:22.098Z,29.26
2019-03-24T09:25:02.142Z,29.83
2019-03-24T09:27:34.662Z,30.11
2019-03-24T09:30:09.807Z,30.11
2019-03-24T09:32:42.785Z,29.34
2019-03-24T09:35:16.557Z,29.97
2019-03-24T09:37:49.432Z,30.17
2019-03-24T09:40:29.708Z,30.04
2019-03-24T09:43:03.922Z,31.14
2019-03-24T09:45:37.492Z,30.25
2019-03-24T09:48:10.821Z,31.29
2019-03-24T09:50:45.329Z,32.04
2019-03-24T09:53:18.116Z,32.01
2019-03-24T09:55:52.192Z,32.44
2019-03-24T09:58:25.307Z,32.91
2019-03-24T10:00:57.866Z,33.38
2019-03-24T10:03:31.860Z,33.54
2019-03-24T10:06:04.718Z,33.35
2019-03-24T10:08:46.769Z,32.13
2019-03-24T10:11:12.475Z,32.13
2019-03-24T10:13:45.090Z,32.85
2019-03-24T10:16:17.814Z,32.66
2019-03-24T10:18:50.653Z,32.28
2019-03-24T10:21:23.644Z,32.78
2019-03-24T10:23:56.882Z,33.44
2019-03-24T10:26:29.897Z,33.08
2019-03-24T10:29:03.048Z,33.39
2019-03-24T10:31:35.885Z,32.84
2019-03-24T10:34:11.371Z,32.45
2019-03-24T10:36:45.064Z,32.44
2019-03-24T10:39:21.988Z,32.32
2019-03-24T10:41:55.021Z,32.94
2019-03-24T10:44:30.970Z,32.59
2019-03-24T10:47:04.662Z,32.19
2019-03-24T10:49:41.429Z,31.43
2019-03-24T10:52:14.502Z,32.45
2019-03-24T10:54:51.623Z,33.32
2019-03-24T10:57:25.226Z,33.28
2019-03-24T11:00:04.355Z,32.94
2019-03-24T11:02:37.633Z,33.87
2019-03-24T11:05:12.766Z,32.14
2019-03-24T11:07:46.381Z,32.66
2019-03-24T11:10:21.912Z,34.35
2019-03-24T11:12:55.473Z,34.57
2019-03-24T11:15:35.794Z,33.90
2019-03-24T11:18:09.695Z,33.64
2019-03-24T11:20:45.326Z,33.72
2019-03-24T11:23:18.063Z,33.91
2019-03-24T11:25:53.924Z,34.45
2019-03-24T11:28:26.868Z,34.73
2019-03-24T11:31:03.605Z,34.33
2019-03-24T11:33:37.912Z,34.88
2019-03-24T11:36:15.138Z,33.92
2019-03-24T11:38:49.632Z,34.34
2019-03-24T11:41:24.128Z,33.47
2019-03-24T11:43:56.903Z,32.62
2019-03-24T11:46:29.530Z,32.83
2019-03-24T11:49:02.821Z,32.62
2019-03-24T11:51:36.081Z,32.83
2019-03-24T11:54:09.214Z,32.93
2019-03-24T11:56:42.503Z,33.15
2019-03-24T11:59:15.460Z,31.99
2019-03-24T12:01:48.314Z,30.78
2019-03-24T12:04:21.514Z,31.38
2019-03-24T12:06:54.361Z,31.19
2019-03-24T12:09:28.379Z,31.45
2019-03-24T12:12:01.170Z,31.63
2019-03-24T12:14:33.962Z,32.25
2019-03-24T12:17:06.865Z,32.46
2019-03-24T12:19:39.949Z,32.41
2019-03-24T12:22:14.490Z,30.14
2019-03-24T12:24:47.061Z,31.29
2019-03-24T12:27:19.844Z,32.27
2019-03-24T12:29:52.452Z,32.91
2019-03-24T12:32:25.239Z,33.79
2019-03-24T12:34:58.764Z,34.41
2019-03-24T12:37:32.927Z,34.95
2019-03-24T12:40:06.346Z,34.24
2019-03-24T12:42:39.119Z,33.95
2019-03-24T12:45:12.857Z,33.53
2019-03-24T12:47:46.285Z,32.90
2019-03-24T12:50:30.661Z,32.80
2019-03-24T12:52:53.754Z,32.39
2019-03-24T12:55:26.918Z,30.12
2019-03-24T12:58:00.328Z,31.03
2019-03-24T13:00:41.589Z,30.67
2019-03-24T13:03:14.537Z,31.34
2019-03-24T13:05:47.388Z,29.36
2019-03-24T13:08:21.374Z,29.77
2019-03-24T13:10:55.012Z,31.11
2019-03-24T13:13:27.909Z,29.19
2019-03-24T13:16:00.350Z,29.57
2019-03-24T13:18:32.964Z,30.58
2019-03-24T13:21:05.798Z,29.37
2019-03-24T13:23:42.766Z,30.95
2019-03-24T13:26:16.231Z,30.57
2019-03-24T13:28:49.147Z,30.54
2019-03-24T13:31:21.908Z,30.99
2019-03-24T13:33:54.710Z,31.41
2019-03-24T13:36:27.604Z,32.11
2019-03-24T13:39:00.928Z,32.58
2019-03-24T13:41:33.522Z,32.54
2019-03-24T13:44:09.281Z,32.76
2019-03-24T13:46:42.188Z,33.07
2019-03-24T13:49:19.064Z,32.74
2019-03-24T13:51:51.940Z,32.40
2019-03-24T13:54:28.861Z,31.77
2019-03-24T13:57:02.018Z,31.78
2019-03-24T13:59:38.782Z,30.81
2019-03-24T14:02:11.938Z,31.16
2019-03-24T14:04:50.691Z,31.20
2019-03-24T14:07:23.314Z,31.35
2019-03-24T14:09:59.895Z,31.46
2019-03-24T14:12:33.055Z,31.82
2019-03-24T14:15:14.909Z,31.66
2019-03-24T14:17:49.202Z,31.63
2019-03-24T14:20:22.300Z,29.99
2019-03-24T14:22:55.561Z,29.36
2019-03-24T14:25:30.944Z,30.34
2019-03-24T14:28:03.466Z,30.19
2019-03-24T14:30:54.752Z,30.12
2019-03-24T14:33:27.527Z,29.03
2019-03-24T14:36:00.372Z,29.12
2019-03-24T14:38:33.307Z,30.04
2019-03-24T14:41:07.147Z,30.79
2019-03-24T14:43:39.803Z,31.38
2019-03-24T14:46:12.388Z,31.48
2019-03-24T14:48:46.082Z,26.77
2019-03-24T14:51:21.224Z,26.58
2019-03-24T14:53:57.167Z,27.15
2019-03-24T14:56:38.453Z,26.80
2019-03-24T14:59:10.976Z,26.39
2019-03-24T15:01:44.032Z,27.85
2019-03-24T15:04:19.834Z,26.39
2019-03-24T15:06:58.387Z,26.53
2019-03-24T15:09:31.068Z,27.11
2019-03-24T15:12:04.361Z,26.04
2019-03-24T15:14:39.125Z,25.06
2019-03-24T15:17:14.599Z,24.82
2019-03-24T15:19:47.372Z,25.07
2019-03-24T15:22:31.014Z,24.52
2019-03-24T15:25:05.244Z,24.39
2019-03-24T15:27:38.233Z,24.18
2019-03-24T15:30:12.631Z,23.82
2019-03-24T15:32:45.763Z,24.24
2019-03-24T15:35:20.599Z,24.22
2019-03-24T15:38:07.814Z,24.32
2019-03-24T15:40:30.638Z,23.77
2019-03-24T15:43:07.503Z,24.05
2019-03-24T15:45:41.385Z,23.82
2019-03-24T15:48:14.535Z,23.63
2019-03-24T15:50:47.321Z,23.29
2019-03-24T15:53:32.876Z,23.60
2019-03-24T15:56:06.428Z,23.02
2019-03-24T15:58:42.399Z,23.08
2019-03-24T16:01:15.003Z,22.78
2019-03-24T16:03:51.092Z,22.86
2019-03-24T16:06:24.858Z,22.97
2019-03-24T16:09:04.347Z,22.70
2019-03-24T16:11:37.128Z,22.57
2019-03-24T16:14:09.777Z,22.20
2019-03-24T16:16:45.459Z,22.23
2019-03-24T16:19:29.033Z,22.07
2019-03-24T16:22:02.967Z,22.10
2019-03-24T16:24:36.007Z,21.79
2019-03-24T16:27:10.014Z,21.50
2019-03-24T16:29:43.098Z,21.56
2019-03-24T16:32:16.143Z,21.61
2019-03-24T16:34:56.133Z,21.59
2019-03-24T16:37:29.942Z,21.26
2019-03-24T16:40:06.830Z,21.09
2019-03-24T16:42:39.854Z,21.00
2019-03-24T16:45:12.821Z,20.90
2019-03-24T16:47:47.063Z,20.66
2019-03-24T16:50:24.229Z,20.64
2019-03-24T16:52:57.376Z,20.49
2019-03-24T16:55:30.409Z,20.37
2019-03-24T16:58:03.368Z,20.24
2019-03-24T17:00:42.510Z,20.04
2019-03-24T17:03:15.852Z,19.99
2019-03-24T17:05:51.809Z,19.91
2019-03-24T17:08:24.957Z,19.82
2019-03-24T17:11:01.333Z,19.63
2019-03-24T17:13:34.910Z,19.51
2019-03-24T17:16:10.779Z,19.30
2019-03-24T17:18:43.654Z,19.15
2019-03-24T17:21:35.054Z,18.99
2019-03-24T17:24:07.725Z,18.85
2019-03-24T17:26:40.606Z,18.80
2019-03-24T17:29:13.510Z,18.70
2019-03-24T17:31:46.516Z,18.59
2019-03-24T17:34:20.136Z,18.41
2019-03-24T17:36:53.136Z,18.32
2019-03-24T17:39:27.251Z,18.24
2019-03-24T17:42:06.030Z,18.17
2019-03-24T17:44:39.834Z,18.08
2019-03-24T17:47:13.741Z,18.22
2019-03-24T17:49:47.508Z,18.15
2019-03-24T17:52:20.513Z,18.07
2019-03-24T17:54:54.254Z,17.98
2019-03-24T17:57:27.623Z,17.86
2019-03-24T18:00:00.575Z,17.76
2019-03-24T18:02:33.661Z,17.62
2019-03-24T18:05:07.262Z,17.64
2019-03-24T18:07:40.338Z,17.73
2019-03-24T18:10:13.822Z,17.79
2019-03-24T18:12:46.833Z,17.77
2019-03-24T18:15:21.601Z,17.75
2019-03-24T18:17:55.017Z,17.73
2019-03-24T18:20:34.204Z,17.69
2019-03-24T18:23:07.070Z,17.64
2019-03-24T18:25:40.722Z,17.58
2019-03-24T18:28:16.099Z,17.37
2019-03-24T18:30:55.898Z,17.32
2019-03-24T18:33:29.017Z,17.09
2019-03-24T18:36:02.808Z,16.95
2019-03-24T18:38:36.306Z,16.99
2019-03-24T18:41:09.679Z,16.94
2019-03-24T18:43:42.696Z,16.92
2019-03-24T18:46:15.505Z,16.76
2019-03-24T18:48:48.317Z,16.62
2019-03-24T18:51:22.245Z,16.47
2019-03-24T18:53:56.062Z,16.21
2019-03-24T18:56:28.640Z,16.14
2019-03-24T18:59:02.666Z,15.98
2019-03-24T19:01:36.024Z,15.86
2019-03-24T19:04:08.807Z,15.87
2019-03-24T19:06:41.875Z,15.78
2019-03-24T19:09:15.244Z,15.57
2019-03-24T19:11:48.857Z,15.44
2019-03-24T19:14:21.621Z,15.39
2019-03-24T19:16:55.226Z,15.28
2019-03-24T19:19:28.007Z,15.11
2019-03-24T19:22:00.933Z,15.06
2019-03-24T19:24:34.326Z,15.01
2019-03-24T19:27:06.869Z,14.86
2019-03-24T19:29:39.533Z,14.78
2019-03-24T19:32:13.058Z,14.62
2019-03-24T19:34:46.360Z,14.46
2019-03-24T19:37:18.804Z,14.22
2019-03-24T19:39:52.026Z,13.99
2019-03-24T19:42:25.571Z,13.79
2019-03-24T19:44:58.764Z,13.70
2019-03-24T19:47:31.796Z,13.57
2019-03-24T19:50:04.943Z,13.54
2019-03-24T19:52:44.559Z,13.44
2019-03-24T19:55:13.798Z,13.37
2019-03-24T19:57:47.485Z,13.25
2019-03-24T20:00:20.548Z,13.12
2019-03-24T20:02:54.237Z,12.91
2019-03-24T20:05:27.624Z,12.85
2019-03-24T20:08:00.987Z,12.73
2019-03-24T20:10:35.098Z,12.68
2019-03-24T20:13:08.417Z,12.53
2019-03-24T20:15:41.515Z,12.42
2019-03-24T20:18:15.356Z,12.34
2019-03-24T20:20:49.036Z,12.29
2019-03-24T20:23:22.496Z,12.29
2019-03-24T20:25:56.086Z,12.30
2019-03-24T20:28:37.465Z,12.35
2019-03-24T20:31:10.965Z,12.24
2019-03-24T20:33:48.725Z,12.10
2019-03-24T20:36:22.102Z,12.07
2019-03-24T20:38:59.898Z,11.94
2019-03-24T20:41:33.221Z,11.78
2019-03-24T20:44:11.243Z,11.75
2019-03-24T20:46:50.351Z,11.74
2019-03-24T20:49:21.060Z,11.71
2019-03-24T20:51:54.281Z,11.63
2019-03-24T20:54:31.190Z,11.60
2019-03-24T20:57:04.613Z,11.41
2019-03-24T20:59:38.973Z,11.27
2019-03-24T21:02:11.784Z,11.16
2019-03-24T21:04:52.303Z,11.07
2019-03-24T21:07:25.224Z,11.09
2019-03-24T21:09:58.597Z,11.05
2019-03-24T21:12:31.632Z,10.89
2019-03-24T21:15:11.279Z,10.77
2019-03-24T21:17:44.207Z,10.61
2019-03-24T21:20:23.524Z,10.39
2019-03-24T21:22:57.183Z,10.25
2019-03-24T21:25:33.470Z,10.11
2019-03-24T21:28:06.580Z,10.02
2019-03-24T21:30:43.788Z,9.96
2019-03-24T21:33:18.404Z,10.00
2019-03-24T21:35:51.257Z,9.99
2019-03-24T21:38:24.579Z,9.94
2019-03-24T21:40:58.023Z,9.89
2019-03-24T21:43:31.539Z,9.83
2019-03-24T21:46:13.953Z,9.70
2019-03-24T21:48:48.347Z,9.80
2019-03-24T21:51:21.911Z,9.73
2019-03-24T21:53:56.033Z,9.66
2019-03-24T21:56:35.857Z,9.54
2019-03-24T21:59:09.059Z,9.48
2019-03-24T22:01:45.167Z,9.43
2019-03-24T22:04:20.782Z,9.38
2019-03-24T22:06:53.758Z,9.34
2019-03-24T22:09:26.773Z,9.32
2019-03-24T22:12:06.083Z,9.26
2019-03-24T22:14:38.742Z,9.26
2019-03-24T22:17:15.090Z,9.19
2019-03-24T22:19:47.803Z,9.14
2019-03-24T22:22:21.041Z,9.04
2019-03-24T22:24:53.782Z,8.89
2019-03-24T22:27:38.011Z,8.73
2019-03-24T22:30:11.132Z,8.64
2019-03-24T22:32:47.158Z,8.52
2019-03-24T22:35:20.473Z,8.38
2019-03-24T22:37:56.247Z,8.31
2019-03-24T22:40:29.936Z,8.36
2019-03-24T22:43:04.311Z,8.32
2019-03-24T22:45:36.972Z,8.25
2019-03-24T22:48:10.038Z,8.27
2019-03-24T22:50:43.148Z,8.33
2019-03-24T22:53:16.293Z,8.40
2019-03-24T22:55:48.921Z,8.37
2019-03-24T22:58:21.724Z,8.30
2019-03-24T23:00:57.171Z,8.31
2019-03-24T23:03:30.350Z,8.26
2019-03-24T23:06:02.992Z,8.21
2019-03-24T23:08:35.945Z,8.15
2019-03-24T23:11:10.149Z,8.11
2019-03-24T23:13:42.711Z,8.03
2019-03-24T23:16:15.448Z,7.94
2019-03-24T23:18:48.484Z,7.91
2019-03-24T23:21:21.299Z,7.81
2019-03-24T23:23:54.291Z,7.75
2019-03-24T23:26:28.474Z,7.79
2019-03-24T23:29:02.249Z,7.67
2019-03-24T23:31:34.862Z,7.63
2019-03-24T23:34:08.586Z,7.66
2019-03-24T23:36:41.348Z,7.74
2019-03-24T23:39:16.709Z,7.58
2019-03-24T23:41:49.509Z,7.50
2019-03-24T23:44:24.068Z,7.51
2019-03-24T23:46:56.835Z,7.58
2019-03-24T23:49:29.549Z,7.55
2019-03-24T23:52:02.272Z,7.51
2019-03-24T23:54:35.159Z,7.45
2019-03-24T23:57:07.719Z,7.44
2019-03-24T23:59:40.313Z,7.28
